Time;durP1;ratioP1;P1;durP2;ratioP2;P2;SDS_P1;SDS_P2;PMS_P1;PMS_P2;Temp;Humidity;BMP_temperature;BMP_pressure;BME280_temperature;BME280_humidity;BME280_pressure;Samples;Min_cycle;Max_cycle;Signal;HPM_P1;HPM_P2
2021/06/11 00:05:31;;;;;;;;;;;;;;;;;;;;;
2021/06/11 00:11:55;;;;;;;;;;;;;;;;;;;;;
2021/06/11 00:18:37;;;;;;;5.93;5.43;;;;;;;14.33;69.38;98796.80;263011;1087;22928;-71
2021/06/11 00:32:23;;;;;;;7.20;6.15;;;;;;;14.05;70.21;98801.63;262654;1087;22787;-72
2021/06/11 00:39:03;;;;;;;6.17;5.40;;;;;;;14.12;70.48;98807.35;263181;1087;23523;-72
2021/06/11 00:46:08;;;;;;;5.17;4.67;;;;;;;14.19;70.45;98805.00;263017;1087;22796;-70
2021/06/11 00:52:39;;;;;;;;;;;;;;;;;;;;;
2021/06/11 00:59:06;;;;;;;;;;;;;;;;;;;;;
2021/06/11 01:05:54;;;;;;;;;;;;;;;;;;;;;
2021/06/11 01:12:59;;;;;;;5.30;4.80;;;;;;;13.82;71.12;98796.30;262915;1085;22775;-70
2021/06/11 01:33:14;;;;;;;;;;;;;;;;;;;;;
2021/06/11 01:46:42;;;;;;;5.53;5.00;;;;;;;13.64;71.97;98778.44;262983;1087;22758;-72
2021/06/11 01:53:35;;;;;;;6.73;4.93;;;;;;;13.47;71.96;98777.25;262676;1087;22857;-71
2021/06/11 02:00:39;;;;;;;8.93;5.73;;;;;;;13.39;72.24;98774.48;262806;1085;23012;-72
2021/06/11 02:07:10;;;;;;;8.00;5.17;;;;;;;13.33;72.67;98771.91;262960;1087;22763;-71
2021/06/11 02:13:39;;;;;;;;;;;;;;;;;;;;;
2021/06/11 02:46:49;;;;;;;8.65;7.10;;;;;;;12.96;74.10;98776.53;262922;1086;27510;-71
2021/06/11 03:07:10;;;;;;;;;;;;;;;;;;;;;
2021/06/11 03:13:46;;;;;;;;;;;;;;;;;;;;;
2021/06/11 03:20:23;;;;;;;7.67;6.10;;;;;;;13.38;75.70;98783.69;262925;1087;22918;-71
2021/06/11 03:26:55;;;;;;;8.03;6.70;;;;;;;13.92;74.50;98789.03;263068;1087;22876;-72
2021/06/11 03:33:49;;;;;;;8.90;6.75;;;;;;;14.46;73.89;98781.61;262708;1087;22776;-71
2021/06/11 03:54:09;;;;;;;;;;;;;;;;;;;;;
2021/06/11 04:01:11;;;;;;;6.25;5.65;;;;;;;16.81;69.22;98791.45;262943;1087;25945;-72
2021/06/11 04:07:48;;;;;;;;;;;;;;;;;;;;;
2021/06/11 04:14:47;;;;;;;;;;;;;;;;;;;;;
2021/06/11 04:21:47;;;;;;;6.80;6.10;;;;;;;16.24;69.12;98791.63;262848;1086;22865;-71
2021/06/11 04:28:33;;;;;;;;;;;;;;;;;;;;;
2021/06/11 04:35:36;;;;;;;;;;;;;;;;;;;;;
2021/06/11 04:49:10;;;;;;;;;;;;;;;;;;;;;
2021/06/11 05:02:22;;;;;;;;;;;;;;;;;;;;;
2021/06/11 05:09:04;;;;;;;6.85;6.00;;;;;;;16.36;70.87;98804.44;263031;1087;22771;-71
2021/06/11 05:15:18;;;;;;;7.90;6.80;;;;;;;16.56;70.81;98808.33;262981;1087;25852;-72
2021/06/11 05:21:12;;;;;;;;;;;;;;;;;;;;;
2021/06/11 05:27:27;;;;;;;10.70;7.78;;;;;;;16.95;70.57;98813.66;263031;1087;23308;-72
2021/06/11 05:34:03;;;;;;;7.68;6.70;;;;;;;17.24;70.60;98818.20;263026;1087;22801;-71
2021/06/11 05:39:25;;;;;;;8.75;7.25;;;;;;;17.40;70.09;98814.89;263371;1085;22792;-71
2021/06/11 05:45:34;;;;;;;9.35;7.30;;;;;;;17.61;69.90;98814.84;263868;1086;22780;-71
2021/06/11 05:58:36;;;;;;;9.70;8.30;;;;;;;18.00;69.08;98809.21;263124;1087;22760;-71
2021/06/11 06:05:20;;;;;;;9.90;8.33;;;;;;;18.20;69.32;98812.95;263465;1087;22928;-72
2021/06/11 06:12:24;;;;;;;10.53;8.97;;;;;;;18.47;68.93;98814.20;263242;1087;22838;-73
2021/06/11 06:19:13;;;;;;;;;;;;;;;;;;;;;
2021/06/11 06:25:52;;;;;;;11.15;9.25;;;;;;;19.28;68.55;98808.08;263058;1087;27050;-72
2021/06/11 06:53:37;;;;;;;10.53;9.43;;;;;;;20.38;65.30;98805.82;262904;1086;23205;-74
2021/06/11 06:59:35;;;;;;;;;;;;;;;;;;;;;
2021/06/11 07:05:54;;;;;;;9.38;7.78;;;;;;;20.91;64.84;98805.47;263577;1086;22771;-73
2021/06/11 07:11:54;;;;;;;;;;;;;;;;;;;;;
2021/06/11 07:18:04;;;;;;;8.83;7.93;;;;;;;21.37;63.47;98802.89;263854;1087;23709;-73
2021/06/11 07:24:38;;;;;;;7.73;6.85;;;;;;;21.77;62.44;98809.11;263200;1087;22775;-74
2021/06/11 07:45:05;;;;;;;6.90;6.20;;;;;;;22.51;59.75;98801.73;263785;1086;22784;-73
2021/06/11 07:51:35;;;;;;;7.58;6.28;;;;;;;22.81;57.72;98803.72;263065;1085;23173;-74
2021/06/11 07:58:06;;;;;;;7.25;6.55;;;;;;;23.20;57.53;98803.45;263388;1086;22908;-73
2021/06/11 08:04:12;;;;;;;;;;;;;;;;;;;;;
2021/06/11 08:11:17;;;;;;;6.77;6.23;;;;;;;24.28;55.57;98793.56;263203;1086;22732;-73
2021/06/11 08:18:03;;;;;;;7.18;5.93;;;;;;;24.66;52.53;98790.70;263025;1087;25761;-72
2021/06/11 08:24:49;;;;;;;5.53;5.10;;;;;;;24.91;51.54;98791.60;263022;1087;22928;-71
2021/06/11 08:31:33;;;;;;;;;;;;;;;;;;;;;
2021/06/11 08:38:30;;;;;;;6.63;6.03;;;;;;;25.55;50.16;98789.51;262813;1087;22875;-73
2021/06/11 08:51:05;;;;;;;6.53;5.45;;;;;;;26.02;47.07;98784.85;263255;1087;23204;-73
2021/06/11 08:57:39;;;;;;;5.23;4.83;;;;;;;26.07;46.07;98781.72;263166;1087;22921;-72
2021/06/11 09:04:38;;;;;;;;;;;;;;;;;;;;;
2021/06/11 09:11:44;;;;;;;6.20;5.70;;;;;;;26.84;46.61;98769.44;262976;1087;22934;-73
2021/06/11 09:17:24;;;;;;;;;;;;;;;;;;;;;
2021/06/11 09:24:00;;;;;;;4.98;4.58;;;;;;;27.15;44.21;98766.95;263272;1087;25998;-72
2021/06/11 09:30:56;;;;;;;5.43;4.83;;;;;;;27.15;43.16;98769.69;263279;1086;22760;-72
2021/06/11 09:37:56;;;;;;;4.45;4.10;;;;;;;26.89;42.20;98769.03;262962;1087;22836;-73
2021/06/11 09:44:56;;;;;;;4.85;4.45;;;;;;;26.75;42.40;98769.88;263121;1086;22982;-73
2021/06/11 09:51:13;;;;;;;;;;;;;;;;;;;;;
2021/06/11 09:58:08;;;;;;;;;;;;;;;;;;;;;
2021/06/11 10:05:00;;;;;;;5.65;5.13;;;;;;;25.86;43.39;98755.04;263077;1090;22820;-72
2021/06/11 10:11:41;;;;;;;;;;;;;;;;;;;;;
2021/06/11 10:18:38;;;;;;;;;;;;;;;;;;;;;
2021/06/11 10:25:29;;;;;;;5.03;4.63;;;;;;;25.91;42.82;98729.16;263106;1090;22840;-71
2021/06/11 10:38:49;;;;;;;7.15;6.55;;;;;;;26.69;42.32;98721.99;262582;1090;28372;-72
2021/06/11 10:45:39;;;;;;;;;;;;;;;;;;;;;
2021/06/11 10:52:09;;;;;;;6.20;5.65;;;;;;;27.08;40.83;98704.53;262283;1093;23682;-71
2021/06/11 10:59:02;;;;;;;;;;;;;;;;;;;;;
2021/06/11 11:11:55;;;;;;;;;;;;;;;;;;;;;
2021/06/11 11:18:24;;;;;;;3.00;2.80;;;;;;;26.92;38.64;98707.00;263038;1090;22775;-71
2021/06/11 11:25:12;;;;;;;;;;;;;;;;;;;;;
2021/06/11 11:31:54;;;;;;;4.70;4.30;;;;;;;25.46;39.35;98715.82;263171;1090;22793;-72
2021/06/11 11:37:41;;;;;;;5.90;4.18;;;;;;;24.65;40.91;98715.18;262870;1088;22873;-71
2021/06/11 11:44:30;;;;;;;4.27;3.97;;;;;;;24.13;41.64;98746.14;262860;1090;22934;-72
2021/06/11 11:51:06;;;;;;;7.43;6.60;;;;;;;22.89;47.08;98748.81;262939;1089;22812;-72
2021/06/11 12:03:40;;;;;;;;;;;;;;;;;;;;;
2021/06/11 12:10:14;;;;;;;;;;;;;;;;;;;;;
2021/06/11 12:23:34;;;;;;;4.70;4.20;;;;;;;18.95;58.26;98752.84;263301;1090;23667;-71
2021/06/11 12:30:18;;;;;;;;;;;;;;;;;;;;;
2021/06/11 12:36:14;;;;;;;1.90;1.80;;;;;;;18.75;57.91;98721.25;262559;1089;22805;-71
2021/06/11 12:43:03;;;;;;;;;;;;;;;;;;;;;
2021/06/11 12:56:15;;;;;;;5.75;5.00;;;;;;;18.58;59.11;98706.81;263094;1089;22875;-71
2021/06/11 13:02:32;;;;;;;3.43;3.13;;;;;;;18.68;60.66;98704.73;263240;1087;22944;-71
2021/06/11 13:09:14;;;;;;;3.60;3.20;;;;;;;18.80;61.90;98697.38;263402;1090;22797;-72
2021/06/11 13:15:50;;;;;;;;;;;;;;;;;;;;;
2021/06/11 13:22:54;;;;;;;4.17;3.43;;;;;;;18.73;62.65;98734.35;263118;1090;22793;-72
2021/06/11 13:49:35;;;;;;;;;;;;;;;;;;;;;
2021/06/11 13:55:35;;;;;;;5.65;4.70;;;;;;;19.00;65.18;98742.88;263603;1089;22873;-71
2021/06/11 14:01:48;;;;;;;9.75;5.35;;;;;;;19.33;65.33;98745.34;262570;1090;22814;-74
2021/06/11 14:07:52;;;;;;;;;;;;;;;;;;;;;
2021/06/11 14:13:47;;;;;;;8.20;5.95;;;;;;;19.49;65.05;98748.10;263240;1089;27373;-71
2021/06/11 14:19:49;;;;;;;;;;;;;;;;;;;;;
2021/06/11 14:26:00;;;;;;;6.60;5.90;;;;;;;19.40;65.68;98720.30;263275;1088;22967;-72
2021/06/11 14:38:17;;;;;;;;;;;;;;;;;;;;;
2021/06/11 14:44:51;;;;;;;5.95;5.20;;;;;;;19.83;67.08;98692.28;263259;1089;22858;-72
2021/06/11 14:58:13;;;;;;;;;;;;;;;;;;;;;
2021/06/11 15:04:49;;;;;;;;;;;;;;;;;;;;;
2021/06/11 15:11:21;;;;;;;6.85;6.00;;;;;;;19.65;66.43;98677.45;263210;1089;22836;-73
2021/06/11 15:17:47;;;;;;;;;;;;;;;;;;;;;
2021/06/11 15:24:28;;;;;;;7.33;6.25;;;;;;;20.92;67.31;98661.97;263310;1089;23411;-72
2021/06/11 15:30:56;;;;;;;;;;;;;;;21.50;66.45;98664.56;262954;1090;22886;-72
2021/06/11 15:36:59;;;;;;;;;;;;;;;;;;;;;
2021/06/11 15:49:57;;;;;;;5.70;5.20;;;;;;;21.75;62.66;98656.00;263266;1090;25539;-71
2021/06/11 15:56:21;;;;;;;7.30;6.60;;;;;;;21.86;62.03;98651.50;263287;1090;22805;-71
2021/06/11 16:02:29;;;;;;;81.55;72.48;;;;;;;22.10;61.13;98654.95;262471;1090;23209;-72
2021/06/11 16:09:14;;;;;;;7.75;6.95;;;;;;;22.00;60.55;98647.42;262979;1088;22779;-71
2021/06/11 16:15:59;;;;;;;6.85;5.98;;;;;;;21.92;60.67;98645.73;263244;1088;22860;-71
2021/06/11 16:21:28;;;;;;;8.70;7.83;;;;;;;22.01;60.84;98644.31;263110;1090;22790;-71
2021/06/11 16:33:20;;;;;;;7.00;6.40;;;;;;;22.24;60.19;98646.17;263085;1090;22770;-71
2021/06/11 16:39:26;;;;;;;7.77;6.97;;;;;;;22.01;58.96;98643.55;263223;1090;22819;-72
2021/06/11 16:45:21;;;;;;;8.33;7.30;;;;;;;21.81;59.33;98640.13;263293;1090;23538;-71
2021/06/11 16:51:06;;;;;;;7.70;6.60;;;;;;;21.66;59.89;98644.59;263248;1090;25993;-71
2021/06/11 16:56:39;;;;;;;6.38;5.85;;;;;;;21.59;60.55;98649.91;262260;1090;22804;-72
2021/06/11 17:02:48;;;;;;;7.53;6.83;;;;;;;21.60;61.19;98655.02;263035;1089;22869;-71
2021/06/11 17:08:42;;;;;;;;;;;;;;;;;;;;;
2021/06/11 17:14:33;;;;;;;8.93;8.13;;;;;;;24.07;61.21;98654.64;262214;1090;26011;-71
2021/06/11 17:20:15;;;;;;;9.28;8.55;;;;;;;25.48;58.59;98650.42;262685;1089;22763;-72
2021/06/11 17:25:41;;;;;;;9.18;8.28;;;;;;;26.76;56.16;98661.51;262668;1089;22805;-72
2021/06/11 17:31:42;;;;;;;8.80;8.05;;;;;;;27.44;53.53;98659.56;262245;1090;26137;-72
2021/06/11 17:37:19;;;;;;;9.85;8.95;;;;;;;27.64;51.64;98670.78;263438;1090;23263;-71
2021/06/11 17:42:57;;;;;;;9.15;8.35;;;;;;;26.25;49.95;98668.38;262792;1089;22816;-72
2021/06/11 17:48:27;;;;;;;8.65;7.85;;;;;;;24.64;51.31;98669.79;263623;1089;22877;-71
2021/06/11 17:54:10;;;;;;;8.55;7.80;;;;;;;23.10;53.28;98679.20;263034;1090;22812;-71
2021/06/11 17:59:16;;;;;;;8.28;7.53;;;;;;;22.10;55.54;98676.77;263502;1090;22941;-71
2021/06/11 18:04:52;;;;;;;8.48;7.68;;;;;;;21.32;56.83;98671.63;263291;1090;24358;-72
2021/06/11 18:11:15;;;;;;;;;;;;;;;;;;;;;
2021/06/11 18:16:28;;;;;;;7.75;7.00;;;;;;;20.26;60.49;98675.36;262518;1090;25893;-71
2021/06/11 18:21:57;;;;;;;7.97;7.17;;;;;;;19.86;61.72;98674.48;262586;1090;22833;-72
2021/06/11 18:27:20;;;;;;;9.47;7.87;;;;;;;19.62;63.07;98668.08;262538;1088;22947;-74
2021/06/11 18:32:38;;;;;;;12.37;9.50;;;;;;;19.36;63.50;98671.31;262050;1090;25973;-72
2021/06/11 18:37:59;;;;;;;14.90;11.03;;;;;;;19.21;64.92;98667.45;262957;1089;24464;-72
2021/06/11 18:43:20;;;;;;;16.47;12.30;;;;;;;19.12;65.50;98659.45;263069;1088;22876;-71
2021/06/11 18:53:34;;;;;;;20.00;14.60;;;;;;;18.89;66.60;98672.04;263000;1090;22934;-71
2021/06/11 18:58:40;;;;;;;21.00;14.30;;;;;;;18.79;66.68;98670.58;262589;1090;22867;-71
2021/06/11 19:03:43;;;;;;;16.30;12.00;;;;;;;18.70;67.14;98676.13;262568;1090;25290;-71
2021/06/11 19:08:47;;;;;;;16.17;12.33;;;;;;;18.54;68.03;98669.88;262501;1090;25989;-71
2021/06/11 19:14:07;;;;;;;12.30;10.40;;;;;;;18.35;68.71;98675.91;262483;1089;22914;-71
2021/06/11 19:19:17;;;;;;;12.20;10.30;;;;;;;18.20;69.50;98675.48;262392;1090;23664;-72
2021/06/11 19:24:24;;;;;;;10.90;9.65;;;;;;;18.13;69.37;98672.54;262542;1089;22812;-71
2021/06/11 19:29:32;;;;;;;10.75;9.40;;;;;;;18.04;70.15;98674.60;262544;1089;22794;-72
2021/06/11 19:34:35;;;;;;;11.75;10.55;;;;;;;17.91;70.38;98671.12;261927;1090;26053;-72
2021/06/11 19:40:11;;;;;;;12.30;11.00;;;;;;;17.82;71.11;98673.11;262499;1090;23163;-71
2021/06/11 19:46:50;;;;;;;14.00;11.37;;;;;;;17.68;71.69;98670.73;262739;1089;22812;-72
2021/06/11 19:52:13;;;;;;;15.90;12.87;;;;;;;17.62;72.08;98670.17;262376;1089;24509;-72
2021/06/11 20:04:20;;;;;;;;;;;;;;;;;;;;;
2021/06/11 20:10:28;;;;;;;17.35;13.00;;;;;;;17.69;73.27;98677.73;262027;1089;22797;-71
2021/06/11 20:16:54;;;;;;;15.90;13.75;;;;;;;17.53;72.76;98680.30;261967;1090;22857;-72
2021/06/11 20:22:53;;;;;;;;;;;;;;;17.41;73.55;98684.58;262627;1090;22816;-71
2021/06/11 20:29:37;;;;;;;17.50;13.90;;;;;;;17.41;74.49;98681.88;262829;1089;21511;-71
2021/06/11 20:36:05;;;;;;;16.00;14.20;;;;;;;17.42;74.54;98685.39;262825;1089;22788;-72
2021/06/11 20:41:20;;;;;;;15.90;13.35;;;;;;;17.40;74.47;98679.50;262517;1090;22813;-71
2021/06/11 20:46:35;;;;;;;16.20;13.60;;;;;;;17.36;74.75;98684.00;262496;1090;22783;-72
2021/06/11 20:51:52;;;;;;;;;;;;;;;;;;;;;
2021/06/11 20:57:04;;;;;;;18.63;16.57;;;;;;;17.21;75.16;98686.23;262817;1089;23243;-72
2021/06/11 21:02:11;;;;;;;17.20;13.85;;;;;;;17.11;75.39;98686.67;262763;1089;22815;-70
2021/06/11 21:07:27;;;;;;;20.45;16.60;;;;;;;17.02;75.72;98694.07;262535;1090;22767;-72
2021/06/11 21:13:21;;;;;;;17.85;15.95;;;;;;;16.97;76.37;98695.08;262565;1089;24362;-73
2021/06/11 21:19:02;;;;;;;;;;;;;;;;;;;;;
2021/06/11 21:24:45;;;;;;;21.25;18.55;;;;;;;16.87;76.82;98695.44;262480;1089;22827;-72
2021/06/11 21:30:06;;;;;;;16.25;14.55;;;;;;;16.79;76.86;98693.60;261909;1090;24327;-72
2021/06/11 21:35:56;;;;;;;16.37;14.67;;;;;;;16.65;77.02;98691.16;262465;1089;22845;-72
2021/06/11 21:41:41;;;;;;;15.70;14.05;;;;;;;16.53;77.34;98692.69;262892;1090;26274;-72
2021/06/11 21:47:16;;;;;;;18.85;15.15;;;;;;;16.47;77.62;98702.13;262511;1090;22782;-71
2021/06/11 21:59:55;;;;;;;;;;;;;;;;;;;;;
2021/06/11 22:06:15;;;;;;;15.60;13.20;;;;;;;16.56;78.04;98708.28;262493;1090;26264;-72
2021/06/11 22:12:36;;;;;;;;;;;;;;;;;;;;;
2021/06/11 22:18:57;;;;;;;;;;;;;;;;;;;;;
2021/06/11 22:25:12;;;;;;;;;;;;;;;;;;;;;
2021/06/11 22:30:50;;;;;;;13.80;12.40;;;;;;;16.28;78.14;98712.59;262381;1089;22821;-71
2021/06/11 22:37:25;;;;;;;13.67;12.27;;;;;;;16.19;78.49;98712.66;262761;1090;26072;-71
2021/06/11 22:44:33;;;;;;;14.87;12.70;;;;;;;16.09;78.54;98716.52;262430;1090;23661;-71
2021/06/11 22:50:52;;;;;;;14.10;12.55;;;;;;;16.01;78.77;98720.06;262546;1089;22783;-73
2021/06/11 22:57:05;;;;;;;13.53;12.13;;;;;;;16.10;79.14;98712.68;262774;1089;22937;-72
2021/06/11 23:02:59;;;;;;;14.03;11.95;;;;;;;16.10;78.84;98718.08;262810;1089;24355;-71
2021/06/11 23:09:35;;;;;;;15.70;12.10;;;;;;;16.22;79.49;98712.77;262847;1090;22787;-72
2021/06/11 23:15:05;;;;;;;;;;;;;;;;;;;;;
2021/06/11 23:20:48;;;;;;;14.50;13.00;;;;;;;15.80;78.65;98709.98;262769;1090;26267;-72
2021/06/11 23:26:06;;;;;;;13.85;12.30;;;;;;;15.69;78.81;98708.72;262760;1089;22776;-72
2021/06/11 23:31:44;;;;;;;14.37;12.90;;;;;;;15.56;79.02;98710.52;262789;1089;24186;-71
2021/06/11 23:37:17;;;;;;;14.63;12.77;;;;;;;15.45;79.39;98706.59;262082;1090;22779;-71
2021/06/11 23:42:35;;;;;;;;;;;;;;;;;;;;;
2021/06/11 23:48:44;;;;;;;;;;;;;;;;;;;;;
2021/06/11 23:55:28;;;;;;;14.15;12.55;;;;;;;15.47;80.74;98709.75;262792;1090;23134;-71
